Terminal Aerodrome Forecast
Issued by NWS Wilmington, OH

Current Version | Previous Version | Graphics & Text | Print | Product List | Glossary On
Versions: 1 2 3 4 5 6 7 8 9 10 11 12 13 14 15 16 17 18 19 20 21 22 23
000
FTUS41 KILN 032320
TAFCMH
TAF
KCMH 032320Z 0400/0424 30004KT P6SM BKN040 OVC080
     FM040600 22005KT P6SM FEW050 SCT090
     FM041200 21008KT P6SM BKN080
     FM041500 23012G22KT P6SM VCSH SCT040 BKN080
     FM041800 23012G22KT 4SM -SHRA VCTS OVC040CB
     FM042100 24012G22KT 4SM -SHRA BR VCTS SCT015 OVC025CB=

USA.gov is the U.S. government's official web portal to all federal, state and local government web resources and services.